ETNL/RLG METAR and TAF weather

Enter ICAO airport designator
Station Type Date Time Source
ETNL METAR 2018/04/23 10:57 UTC NOAA

ETNL 231057Z 30017KT 9999 BKN022 BKN038 17/11 Q1010 WHT WHT BECMG BLU+


Station Type Date Time Source
ETNL Decoded METAR 2018/04/23 10:57 UTC NOAA

Laage, Germany (ETNL) 53-55N 012-17E 46M
Apr 23, 2018 - 06:57 AM EDT / 2018.04.23 1057 UTC
Wind: from the WNW (300 degrees) at 20 MPH (17 KT):0
Visibility: greater than 7 mile(s):0
Sky conditions: mostly cloudy
Temperature: 62 F (17 C)
Dew Point: 51 F (11 C)
Relative Humidity: 67%
Pressure (altimeter): 29.83 in. Hg (1010 hPa)
ob: ETNL 231057Z 30017KT 9999 BKN022 BKN038 17/11 Q1010 WHT WHT BECMG BLU+
cycle: 11

Station Type Date Time Source
ETNL TAF 2018/04/23 23:21 UTC NOAA

TAF TAF
AMD ETNL 230410Z 2223/2311 20005KT 9999 NSW SCT100 BKN250
TEMPO 2223/2311 22010KT 4000 SHRA SCT020 BKN040CB PROB30 2223/2311 VRB15G30KT 2000 TSRA SCT010 BKN020CB CANCEL 0500Z BY ETGL


Example: see airport list